Time;durP1;ratioP1;P1;durP2;ratioP2;P2;SDS_P1;SDS_P2;PMS_P1;PMS_P2;Temp;Humidity;BMP_temperature;BMP_pressure;BME280_temperature;BME280_humidity;BME280_pressure;Samples;Min_cycle;Max_cycle;Signal;HPM_P1;HPM_P2
2023/06/01 02:43:36;;;;;;;12.20;5.50;;;;;;;13.84;50.24;99196.74;107734;1296;545055;-46
2023/06/01 02:46:03;;;;;;;11.90;4.70;;;;;;;13.83;49.80;99192.98;108063;1306;22243;-46
2023/06/01 02:48:28;;;;;;;13.30;5.20;;;;;;;13.85;50.34;99190.57;108084;1306;22465;-48
2023/06/01 02:50:53;;;;;;;10.40;5.40;;;;;;;13.83;50.03;99187.88;108068;1306;22265;-48
2023/06/01 02:53:19;;;;;;;8.70;4.70;;;;;;;13.83;50.69;99187.20;108089;1306;23106;-45
2023/06/01 02:55:44;;;;;;;12.50;4.90;;;;;;;13.83;50.35;99189.06;108064;1306;22987;-46
2023/06/01 02:58:16;;;;;;;16.50;5.60;;;;;;;13.84;50.53;99192.55;108199;1303;146118;-48
2023/06/01 03:00:41;;;;;;;11.40;4.90;;;;;;;13.84;50.06;99190.46;108321;1303;22225;-50
2023/06/01 03:03:07;;;;;;;16.40;5.30;;;;;;;13.84;50.17;99189.40;108346;1303;22684;-48
2023/06/01 03:05:35;;;;;;;13.40;6.10;;;;;;;13.85;50.20;99188.45;108317;1303;22272;-46
2023/06/01 03:08:01;;;;;;;15.10;4.90;;;;;;;13.85;50.53;99191.23;108338;1303;22263;-46
2023/06/01 03:10:26;;;;;;;10.40;5.50;;;;;;;13.87;50.70;99193.78;108327;1303;22228;-46
2023/06/01 03:12:51;;;;;;;12.30;5.20;;;;;;;13.87;50.85;99190.58;108320;1303;22444;-45
2023/06/01 03:15:16;;;;;;;10.10;5.10;;;;;;;13.88;51.08;99193.34;108341;1303;22419;-45
2023/06/01 03:17:42;;;;;;;17.60;5.10;;;;;;;13.90;51.49;99193.40;108344;1303;22464;-45
2023/06/01 03:20:14;;;;;;;10.50;5.10;;;;;;;13.89;51.64;99194.69;108335;1303;22406;-49
2023/06/01 03:22:41;;;;;;;13.40;5.40;;;;;;;13.89;51.94;99193.61;108322;1303;23006;-49
2023/06/01 03:25:07;;;;;;;14.30;5.40;;;;;;;13.89;52.58;99192.05;108337;1303;22227;-48
2023/06/01 03:27:32;;;;;;;12.30;4.90;;;;;;;13.90;53.06;99191.79;108344;1303;22998;-50
2023/06/01 03:29:57;;;;;;;12.40;5.00;;;;;;;13.93;52.48;99193.54;108347;1303;22737;-48
2023/06/01 03:32:23;;;;;;;12.00;5.10;;;;;;;13.95;52.11;99191.23;108287;1296;22299;-48
2023/06/01 03:34:48;;;;;;;13.00;5.50;;;;;;;13.96;51.89;99186.92;108229;1282;22323;-46
2023/06/01 03:37:14;;;;;;;12.50;5.90;;;;;;;13.97;51.56;99192.02;108180;1304;22275;-44
2023/06/01 03:39:39;;;;;;;11.70;5.00;;;;;;;13.98;51.35;99187.16;108198;1304;22220;-46
2023/06/01 03:42:05;;;;;;;14.10;5.40;;;;;;;14.02;51.84;99187.94;108225;1304;23176;-43
2023/06/01 03:44:31;;;;;;;13.10;5.20;;;;;;;14.06;52.31;99182.37;108242;1304;23063;-45
2023/06/01 03:46:56;;;;;;;12.00;5.40;;;;;;;14.10;52.10;99181.55;108221;1304;22457;-50
2023/06/01 03:49:21;;;;;;;11.10;5.50;;;;;;;14.11;51.61;99179.84;108226;1304;22339;-52
2023/06/01 03:51:47;;;;;;;9.40;5.00;;;;;;;14.15;52.01;99178.01;108205;1304;22255;-50
2023/06/01 03:54:12;;;;;;;9.80;5.90;;;;;;;14.19;51.14;99176.86;108237;1304;22224;-49
2023/06/01 03:56:37;;;;;;;12.00;5.60;;;;;;;14.20;51.09;99177.46;108211;1304;22353;-46
2023/06/01 03:59:03;;;;;;;10.20;5.90;;;;;;;14.24;51.74;99174.56;108246;1304;22379;-45
2023/06/01 04:01:29;;;;;;;16.60;5.80;;;;;;;14.29;51.52;99173.70;108225;1304;22239;-48
2023/06/01 04:03:55;;;;;;;15.30;5.80;;;;;;;14.34;51.43;99173.83;108221;1304;23018;-49
2023/06/01 04:06:21;;;;;;;9.90;5.30;;;;;;;14.36;51.92;99172.27;108218;1304;22456;-49
2023/06/01 04:08:50;;;;;;;16.10;6.10;;;;;;;14.40;51.56;99170.71;108251;1304;23046;-46
2023/06/01 04:11:16;;;;;;;10.00;5.50;;;;;;;14.45;51.38;99163.14;108230;1304;22237;-46
2023/06/01 04:13:43;;;;;;;26.00;5.50;;;;;;;14.50;51.52;99162.27;108211;1304;22392;-49
2023/06/01 04:16:09;;;;;;;12.20;6.10;;;;;;;14.53;51.84;99156.91;108239;1304;22239;-48
2023/06/01 04:18:35;;;;;;;11.10;5.60;;;;;;;14.57;51.97;99157.50;108207;1304;22412;-46
2023/06/01 04:21:00;;;;;;;16.50;6.00;;;;;;;14.62;51.87;99156.34;108242;1304;22257;-48
2023/06/01 04:23:25;;;;;;;16.50;5.70;;;;;;;14.66;51.80;99155.67;108224;1304;23148;-45
2023/06/01 04:25:51;;;;;;;11.70;5.80;;;;;;;14.70;51.25;99151.46;108218;1304;22334;-49
2023/06/01 04:28:17;;;;;;;16.00;6.10;;;;;;;14.75;51.04;99149.31;108228;1304;22464;-48
2023/06/01 04:30:47;;;;;;;11.50;5.30;;;;;;;14.81;51.34;99147.67;108218;1304;22464;-47
2023/06/01 04:33:13;;;;;;;15.20;5.50;;;;;;;14.85;51.06;99140.67;108224;1304;23147;-46
2023/06/01 04:35:38;;;;;;;12.30;4.80;;;;;;;14.90;50.78;99137.10;108196;1304;22244;-49
2023/06/01 04:38:03;;;;;;;17.80;5.50;;;;;;;14.96;50.77;99138.02;108212;1304;22937;-45
2023/06/01 04:40:29;;;;;;;15.30;5.50;;;;;;;15.03;50.93;99137.02;108221;1304;22247;-46
2023/06/01 04:42:57;;;;;;;13.60;5.90;;;;;;;15.07;50.76;99136.00;108185;1304;22294;-48
2023/06/01 04:45:25;;;;;;;23.00;6.10;;;;;;;15.10;50.61;99137.16;108228;1304;22110;-46
2023/06/01 04:47:51;;;;;;;17.30;5.90;;;;;;;15.12;50.54;99141.22;108250;1304;22474;-47
2023/06/01 04:50:16;;;;;;;10.40;5.40;;;;;;;15.17;50.66;99141.23;108240;1304;22236;-45
2023/06/01 04:52:42;;;;;;;16.40;5.60;;;;;;;15.19;50.53;99137.02;108243;1290;22230;-45
2023/06/01 04:55:09;;;;;;;16.80;5.50;;;;;;;15.21;50.51;99134.90;108222;1304;23094;-47
2023/06/01 04:57:36;;;;;;;10.50;5.40;;;;;;;15.24;50.47;99136.23;108234;1304;22434;-47
2023/06/01 05:00:06;;;;;;;11.80;5.40;;;;;;;15.28;50.63;99133.11;108227;1304;22256;-46
2023/06/01 05:02:31;;;;;;;12.80;5.10;;;;;;;15.34;50.48;99133.21;108228;1304;23001;-48
2023/06/01 05:04:57;;;;;;;8.10;5.10;;;;;;;15.40;50.14;99129.73;108231;1304;23276;-47
2023/06/01 05:07:24;;;;;;;22.80;5.20;;;;;;;15.45;50.02;99128.80;108226;1304;22258;-46
2023/06/01 05:09:49;;;;;;;;;;;;;;;15.47;50.08;99125.98;108229;1304;22926;-49
2023/06/01 05:12:15;;;;;;;12.90;5.00;;;;;;;15.46;50.05;99127.30;108224;1304;22470;-44
2023/06/01 05:14:40;;;;;;;10.50;4.70;;;;;;;15.52;49.51;99124.35;108214;1304;22236;-48
2023/06/01 05:17:05;;;;;;;9.10;4.70;;;;;;;15.53;49.72;99120.03;108209;1304;22237;-48
2023/06/01 05:19:30;;;;;;;6.80;4.50;;;;;;;15.58;49.69;99119.50;108207;1304;22479;-46
2023/06/01 05:21:56;;;;;;;8.10;5.00;;;;;;;15.63;49.85;99120.52;108227;1304;22477;-44
2023/06/01 05:24:21;;;;;;;9.20;5.10;;;;;;;15.67;49.98;99119.69;108222;1304;22233;-47
2023/06/01 05:26:46;;;;;;;12.70;4.80;;;;;;;15.70;50.02;99115.50;108193;1304;22461;-47
2023/06/01 05:29:12;;;;;;;16.40;5.10;;;;;;;15.74;50.17;99112.75;108208;1304;22648;-46
2023/06/01 05:31:37;;;;;;;11.00;5.00;;;;;;;15.74;50.50;99113.30;108227;1304;22230;-47
2023/06/01 05:34:02;;;;;;;9.00;4.50;;;;;;;15.78;50.73;99114.64;108191;1304;22953;-45
2023/06/01 05:36:28;;;;;;;13.20;4.70;;;;;;;15.82;50.77;99114.83;108224;1304;22955;-51
2023/06/01 05:38:54;;;;;;;9.10;4.80;;;;;;;15.89;50.80;99116.77;108218;1304;22498;-45
2023/06/01 05:41:19;;;;;;;14.30;5.50;;;;;;;15.92;50.85;99115.39;108220;1304;22492;-45
2023/06/01 05:43:44;;;;;;;11.30;5.30;;;;;;;15.97;50.44;99115.02;108216;1292;22375;-45
2023/06/01 05:46:10;;;;;;;14.80;4.90;;;;;;;16.01;50.55;99109.39;108210;1304;22328;-45
2023/06/01 05:48:35;;;;;;;14.70;5.50;;;;;;;16.05;50.90;99105.86;108217;1304;22241;-48
2023/06/01 05:51:00;;;;;;;15.60;5.20;;;;;;;16.12;50.62;99105.48;108205;1304;22454;-48
2023/06/01 05:53:27;;;;;;;13.80;4.70;;;;;;;16.19;50.81;99104.61;108216;1304;22352;-45
2023/06/01 05:55:52;;;;;;;17.90;5.60;;;;;;;16.24;51.33;99103.80;108232;1304;22300;-48
2023/06/01 05:58:18;;;;;;;12.40;5.30;;;;;;;16.28;51.34;99104.52;108203;1304;22243;-45
2023/06/01 06:00:43;;;;;;;12.60;5.00;;;;;;;16.33;51.18;99103.41;108211;1304;22264;-45
2023/06/01 06:03:08;;;;;;;14.20;5.70;;;;;;;16.40;51.05;99103.37;108188;1304;22296;-48
2023/06/01 06:05:33;;;;;;;11.50;4.80;;;;;;;16.47;50.98;99101.24;108247;1304;22223;-49
2023/06/01 06:07:59;;;;;;;14.70;5.00;;;;;;;16.52;51.16;99097.42;108232;1304;22259;-49
2023/06/01 06:10:24;;;;;;;15.00;4.50;;;;;;;16.59;50.70;99102.34;108214;1304;22424;-50
2023/06/01 06:12:50;;;;;;;24.60;4.90;;;;;;;16.67;50.24;99098.69;108210;1304;22234;-48
2023/06/01 06:15:16;;;;;;;12.50;4.50;;;;;;;16.74;49.92;99101.27;108223;1304;22228;-48
2023/06/01 06:17:42;;;;;;;15.20;4.40;;;;;;;16.80;49.19;99098.67;108238;1304;22304;-49
2023/06/01 06:20:08;;;;;;;8.70;4.30;;;;;;;16.88;48.49;99103.70;108227;1304;22210;-44
2023/06/01 06:22:34;;;;;;;11.40;3.80;;;;;;;16.94;48.59;99101.59;108206;1304;22254;-47
2023/06/01 06:24:59;;;;;;;13.20;3.80;;;;;;;17.00;48.48;99100.95;108202;1304;22309;-45
2023/06/01 06:27:25;;;;;;;19.80;4.20;;;;;;;17.07;48.46;99097.46;108226;1304;22233;-49
2023/06/01 06:29:50;;;;;;;14.50;5.30;;;;;;;17.14;48.59;99095.46;108231;1304;22229;-49
2023/06/01 06:32:15;;;;;;;11.30;4.40;;;;;;;17.20;48.41;99093.31;108208;1304;22235;-47
2023/06/01 06:34:40;;;;;;;11.20;4.60;;;;;;;17.27;48.18;99095.96;108209;1304;22860;-50
2023/06/01 06:37:06;;;;;;;11.60;3.90;;;;;;;17.35;48.16;99096.17;108210;1304;22516;-51
2023/06/01 06:39:33;;;;;;;11.40;3.60;;;;;;;17.44;47.56;99097.52;108218;1304;23096;-50
2023/06/01 06:41:59;;;;;;;16.90;3.60;;;;;;;17.52;47.09;99094.84;108195;1304;23041;-46
2023/06/01 06:44:24;;;;;;;7.90;4.30;;;;;;;17.61;47.13;99092.13;108212;1304;22222;-51
2023/06/01 06:46:50;;;;;;;13.30;3.50;;;;;;;17.71;47.18;99091.63;108201;1304;22417;-48
2023/06/01 06:49:15;;;;;;;6.30;3.10;;;;;;;17.79;46.70;99092.10;108209;1304;22543;-45
2023/06/01 06:51:41;;;;;;;4.50;3.00;;;;;;;17.88;46.39;99090.49;108207;1304;22221;-51
2023/06/01 06:54:06;;;;;;;8.90;2.70;;;;;;;17.99;46.19;99093.23;108200;1304;22388;-49
2023/06/01 06:56:32;;;;;;;12.90;3.50;;;;;;;18.10;46.09;99093.91;108212;1304;23157;-51
2023/06/01 06:58:57;;;;;;;13.10;3.20;;;;;;;18.19;45.48;99089.64;108202;1304;22414;-48
2023/06/01 07:01:24;;;;;;;7.50;2.90;;;;;;;18.26;45.39;99089.21;108219;1304;22404;-46
2023/06/01 07:03:51;;;;;;;10.80;3.30;;;;;;;18.33;45.41;99088.41;108226;1304;22214;-49
2023/06/01 07:06:16;;;;;;;4.90;2.80;;;;;;;18.42;45.10;99089.90;108206;1304;23141;-46
2023/06/01 07:08:42;;;;;;;5.30;2.70;;;;;;;18.49;44.66;99085.91;108203;1304;22457;-45
2023/06/01 07:11:07;;;;;;;5.50;2.60;;;;;;;18.54;44.36;99086.90;108218;1304;22170;-44
2023/06/01 07:13:32;;;;;;;6.60;2.70;;;;;;;18.60;44.47;99086.25;108230;1304;22249;-47
2023/06/01 07:15:58;;;;;;;8.60;3.00;;;;;;;18.69;44.75;99079.46;108149;1296;22594;-45
2023/06/01 07:18:23;;;;;;;6.60;2.20;;;;;;;18.78;44.79;99081.81;108256;1299;22945;-47
2023/06/01 07:20:48;;;;;;;5.70;2.10;;;;;;;18.86;43.96;99081.60;108196;1304;22318;-46
2023/06/01 07:23:15;;;;;;;9.00;2.40;;;;;;;18.98;43.61;99079.63;108204;1304;22215;-45
2023/06/01 07:25:41;;;;;;;5.90;2.40;;;;;;;19.06;43.38;99078.19;108266;1304;22293;-46
2023/06/01 07:28:07;;;;;;;5.70;2.10;;;;;;;19.14;43.31;99079.88;108261;1304;22233;-49
2023/06/01 07:30:32;;;;;;;4.90;2.40;;;;;;;19.22;42.93;99080.75;108292;1292;22664;-50
2023/06/01 07:32:58;;;;;;;8.60;2.70;;;;;;;19.30;42.76;99079.50;108319;1304;22988;-47
2023/06/01 07:35:23;;;;;;;5.70;2.20;;;;;;;19.37;42.36;99072.89;108288;1299;23355;-46
2023/06/01 07:37:49;;;;;;;11.30;2.40;;;;;;;19.45;41.15;99070.45;108288;1304;22211;-47
2023/06/01 07:40:15;;;;;;;9.70;2.40;;;;;;;19.52;39.45;99070.59;108309;1304;22232;-45
2023/06/01 07:42:40;;;;;;;2.40;1.90;;;;;;;19.60;39.78;99068.11;108271;1298;22211;-52
2023/06/01 07:45:07;;;;;;;4.90;1.60;;;;;;;19.64;39.35;99065.00;108241;1298;22492;-51
2023/06/01 07:47:33;;;;;;;3.00;1.50;;;;;;;19.70;39.38;99066.91;108254;1296;22317;-45
2023/06/01 07:49:58;;;;;;;3.30;1.60;;;;;;;19.77;37.88;99064.84;108226;1296;22455;-51
2023/06/01 07:52:24;;;;;;;5.50;1.80;;;;;;;19.86;38.40;99066.45;108237;1298;22306;-52
2023/06/01 07:54:50;;;;;;;3.10;1.60;;;;;;;19.96;37.82;99066.22;108299;1304;22593;-45
2023/06/01 07:57:16;;;;;;;7.90;2.00;;;;;;;20.03;37.67;99069.47;108299;1304;22413;-50
2023/06/01 07:59:41;;;;;;;6.50;1.70;;;;;;;20.13;36.92;99070.27;108302;1304;22985;-47
2023/06/01 08:02:07;;;;;;;1.70;1.50;;;;;;;20.23;36.13;99068.75;108313;1304;22255;-50
2023/06/01 08:04:33;;;;;;;6.80;2.10;;;;;;;20.26;35.05;99069.41;108289;1304;22866;-50
2023/06/01 08:06:59;;;;;;;5.30;1.50;;;;;;;20.33;35.38;99069.20;108255;1304;23017;-47
2023/06/01 08:09:24;;;;;;;4.80;1.60;;;;;;;20.44;36.17;99062.91;108178;1304;22181;-48
2023/06/01 08:11:50;;;;;;;2.90;1.70;;;;;;;20.54;36.13;99061.19;108192;1304;22512;-48
2023/06/01 08:14:16;;;;;;;3.60;1.70;;;;;;;20.66;36.12;99061.05;108186;1304;22244;-46
2023/06/01 08:16:42;;;;;;;3.00;2.00;;;;;;;20.78;35.97;99059.39;108168;1304;23126;-47
2023/06/01 08:19:07;;;;;;;3.70;1.90;;;;;;;20.89;36.30;99058.42;108190;1304;22201;-47
2023/06/01 08:21:34;;;;;;;2.40;1.90;;;;;;;21.04;36.44;99056.14;108189;1298;22577;-48
2023/06/01 08:24:02;;;;;;;4.70;2.20;;;;;;;21.15;36.31;99049.65;108203;1297;22993;-44
2023/06/01 08:26:28;;;;;;;3.10;1.70;;;;;;;21.28;36.38;99051.02;108226;1296;22313;-47
2023/06/01 08:28:53;;;;;;;6.40;2.00;;;;;;;21.41;35.82;99044.17;108245;1304;23166;-46
2023/06/01 08:31:20;;;;;;;5.20;1.90;;;;;;;21.59;35.41;99041.80;108201;1298;22306;-47
2023/06/01 08:33:46;;;;;;;9.10;1.90;;;;;;;21.70;34.99;99041.29;108166;1304;22340;-48
2023/06/01 08:36:12;;;;;;;3.90;1.90;;;;;;;21.86;34.60;99044.59;108194;1304;23353;-47
2023/06/01 08:38:38;;;;;;;4.70;1.70;;;;;;;22.01;34.43;99038.60;108161;1304;22350;-47
2023/06/01 08:41:12;;;;;;;7.20;1.80;;;;;;;22.11;33.38;99038.39;108203;1304;23156;-47
2023/06/01 08:43:41;;;;;;;4.20;1.70;;;;;;;22.27;33.58;99035.58;108156;1304;22995;-46
2023/06/01 08:46:06;;;;;;;5.00;1.70;;;;;;;22.46;32.74;99034.25;108190;1304;22235;-47
2023/06/01 08:48:33;;;;;;;3.40;1.70;;;;;;;22.58;32.69;99032.27;108160;1304;22281;-45
2023/06/01 08:51:00;;;;;;;4.60;1.50;;;;;;;22.71;32.67;99028.91;108179;1304;22218;-47
2023/06/01 08:53:28;;;;;;;5.40;1.70;;;;;;;22.79;31.81;99029.54;108208;1304;22493;-46
2023/06/01 08:55:56;;;;;;;4.10;1.60;;;;;;;22.81;31.78;99023.14;108177;1304;22316;-48
2023/06/01 08:58:22;;;;;;;3.40;1.10;;;;;;;22.98;31.89;99017.31;108191;1304;23143;-48
2023/06/01 09:00:53;;;;;;;5.40;1.60;;;;;;;23.06;31.05;99023.95;108183;1304;22255;-48
2023/06/01 09:03:19;;;;;;;5.80;1.60;;;;;;;23.12;30.64;99016.33;108168;1304;22194;-46
2023/06/01 09:05:44;;;;;;;7.70;1.90;;;;;;;23.30;30.70;99013.17;108181;1304;22902;-46
2023/06/01 09:08:10;;;;;;;6.70;1.80;;;;;;;23.45;30.59;99001.64;108174;1289;22238;-44
2023/06/01 09:10:36;;;;;;;3.90;1.60;;;;;;;23.67;30.53;99012.34;108155;1304;22350;-47
2023/06/01 09:13:01;;;;;;;5.10;1.70;;;;;;;23.93;30.32;99013.17;108171;1305;23119;-43
2023/06/01 09:15:26;;;;;;;6.40;1.80;;;;;;;24.16;29.37;99008.81;108143;1296;22458;-46
2023/06/01 09:18:05;;;;;;;3.30;1.70;;;;;;;24.24;29.17;99010.40;108288;1298;22346;-48
2023/06/01 09:20:31;;;;;;;5.40;1.60;;;;;;;24.32;28.77;99010.17;108234;1301;23167;-46
2023/06/01 09:22:57;;;;;;;3.30;1.40;;;;;;;24.58;28.45;99006.41;108283;1304;22237;-40
2023/06/01 09:25:32;;;;;;;2.90;1.50;;;;;;;24.92;27.82;98998.57;108319;1304;22465;-43
2023/06/01 09:28:00;;;;;;;4.90;1.50;;;;;;;25.29;27.28;98993.59;108288;1304;22905;-47
2023/06/01 09:30:37;;;;;;;7.10;1.50;;;;;;;25.80;27.06;98995.36;108292;1304;22293;-47
2023/06/01 09:33:09;;;;;;;2.40;1.60;;;;;;;26.29;25.62;98993.15;108263;1301;22309;-45
2023/06/01 09:35:42;;;;;;;5.00;1.60;;;;;;;26.88;25.38;98991.27;108256;1298;22543;-46
2023/06/01 09:38:09;;;;;;;5.30;1.90;;;;;;;27.56;25.38;98993.09;108169;1301;22304;-45
2023/06/01 09:40:35;;;;;;;6.80;1.70;;;;;;;28.00;23.34;98995.86;108171;1305;22341;-46
2023/06/01 09:43:02;;;;;;;11.30;1.90;;;;;;;28.42;22.95;98996.71;108145;1304;22312;-45
2023/06/01 09:45:29;;;;;;;4.10;1.80;;;;;;;28.61;22.58;98992.23;108121;1298;22964;-44
2023/06/01 09:48:14;;;;;;;;;;;;;;;28.80;21.91;98994.38;108241;1298;23587;-46
2023/06/01 09:50:40;;;;;;;2.10;1.50;;;;;;;29.04;21.45;98995.80;108237;1298;22071;-48
2023/06/01 09:53:05;;;;;;;2.10;1.40;;;;;;;29.34;21.23;98995.08;108293;1304;22716;-45
2023/06/01 09:55:31;;;;;;;6.00;1.60;;;;;;;29.38;20.55;98991.60;108272;1296;22436;-47
2023/06/01 09:58:20;;;;;;;3.40;1.50;;;;;;;29.63;20.64;98980.41;108238;1296;22196;-48
2023/06/01 10:00:47;;;;;;;2.40;1.30;;;;;;;30.11;20.49;98978.65;108263;1302;22388;-45
2023/06/01 10:03:14;;;;;;;2.80;1.60;;;;;;;30.48;19.55;98980.13;108177;1299;23052;-45
2023/06/01 10:05:40;;;;;;;9.60;1.90;;;;;;;31.11;20.00;98975.44;108164;1292;22981;-46
2023/06/01 10:08:06;;;;;;;7.80;1.60;;;;;;;31.43;19.90;98971.58;108199;1298;22262;-45
2023/06/01 10:10:32;;;;;;;3.30;1.60;;;;;;;31.56;18.70;98966.23;108276;1301;22474;-45
2023/06/01 10:12:58;;;;;;;3.20;1.70;;;;;;;31.91;18.34;98972.43;108200;1304;22219;-40
2023/06/01 10:15:23;;;;;;;2.00;1.30;;;;;;;31.97;18.07;98981.45;108302;1298;23158;-42
2023/06/01 10:17:49;;;;;;;5.60;1.80;;;;;;;32.20;18.18;98973.98;108156;1304;22236;-45
2023/06/01 10:20:15;;;;;;;6.50;1.50;;;;;;;31.75;18.01;98968.36;108218;1304;22256;-44
2023/06/01 10:22:42;;;;;;;11.00;1.70;;;;;;;31.95;18.03;98973.73;108292;1298;22307;-45
2023/06/01 10:25:10;;;;;;;2.70;1.80;;;;;;;32.11;18.19;98971.70;108297;1304;22235;-44
2023/06/01 10:27:41;;;;;;;2.80;1.90;;;;;;;32.34;17.92;98971.96;108195;1304;22248;-43
2023/06/01 10:30:09;;;;;;;3.60;1.50;;;;;;;33.06;17.94;98975.15;108241;1298;22328;-44
2023/06/01 10:32:37;;;;;;;2.50;1.80;;;;;;;32.81;17.45;98966.87;108241;1296;22375;-45
2023/06/01 10:35:10;;;;;;;3.60;1.60;;;;;;;32.89;17.63;98971.91;108194;1298;23551;-44
2023/06/01 10:37:36;;;;;;;6.80;1.80;;;;;;;33.43;17.51;98965.53;107555;1305;22687;-46
2023/06/01 10:40:16;;;;;;;3.60;1.90;;;;;;;33.58;17.21;98964.27;108192;1304;22234;-47
2023/06/01 10:42:43;;;;;;;5.80;2.10;;;;;;;33.61;17.17;98962.84;108235;1304;22233;-44
2023/06/01 10:45:34;;;;;;;4.80;1.80;;;;;;;33.44;16.58;98955.73;108284;1304;23164;-45
2023/06/01 10:48:03;;;;;;;3.80;1.90;;;;;;;33.57;16.44;98948.25;108242;1304;22847;-47
2023/06/01 10:50:29;;;;;;;4.90;1.70;;;;;;;33.91;16.65;98954.40;107936;1298;22316;-45
2023/06/01 10:52:56;;;;;;;5.20;1.90;;;;;;;34.09;16.49;98954.57;107802;1304;22436;-43
2023/06/01 10:55:24;;;;;;;3.30;1.80;;;;;;;34.01;16.37;98952.52;107954;1299;22894;-45
2023/06/01 10:57:50;;;;;;;5.40;1.90;;;;;;;34.06;16.62;98944.69;108126;1298;22490;-45
2023/06/01 11:00:24;;;;;;;4.30;1.60;;;;;;;34.53;16.76;98942.19;108221;1304;23350;-41
2023/06/01 11:03:03;;;;;;;5.20;1.90;;;;;;;34.50;16.61;98939.96;108054;1304;22807;-45
2023/06/01 11:05:47;;;;;;;7.80;1.80;;;;;;;34.65;16.18;98937.29;107892;1302;22620;-46
2023/06/01 11:08:21;;;;;;;9.40;2.30;;;;;;;34.97;16.18;98941.04;108219;1301;22252;-43
2023/06/01 11:10:54;;;;;;;4.80;2.00;;;;;;;35.10;15.89;98942.03;108275;1301;23001;-50
2023/06/01 11:13:19;;;;;;;4.20;2.00;;;;;;;34.87;15.79;98935.60;107483;1296;22556;-46
2023/06/01 11:16:10;;;;;;;6.00;1.70;;;;;;;34.60;15.84;98932.37;107775;1304;22240;-46
2023/06/01 11:19:00;;;;;;;4.40;1.70;;;;;;;34.78;15.95;98923.23;108244;1304;22246;-46
2023/06/01 11:21:43;;;;;;;4.60;1.90;;;;;;;35.22;15.70;98924.25;108201;1298;22131;-42
2023/06/01 11:24:14;;;;;;;4.10;2.30;;;;;;;35.75;15.53;98923.00;108258;1304;22243;-44
2023/06/01 11:26:42;;;;;;;3.30;2.00;;;;;;;35.82;15.09;98918.90;108203;1298;22248;-47
2023/06/01 11:29:08;;;;;;;5.20;1.80;;;;;;;35.54;15.24;98918.28;108285;1304;22495;-45
2023/06/01 11:31:43;;;;;;;2.40;2.20;;;;;;;35.91;15.20;98914.65;108214;1298;22307;-46
2023/06/01 11:34:10;;;;;;;5.60;1.70;;;;;;;36.17;15.15;98913.46;107587;1304;22811;-43
